Time;durP1;ratioP1;P1;durP2;ratioP2;P2;SDS_P1;SDS_P2;PMS_P1;PMS_P2;Temp;Humidity;BMP_temperature;BMP_pressure;BME280_temperature;BME280_humidity;BME280_pressure;Samples;Min_cycle;Max_cycle;Signal;HPM_P1;HPM_P2
2021/12/02 00:01:55;;;;;;;1.92;0.50;;;;;;;;;;5054033;28;20102;-76
2021/12/02 00:04:21;;;;;;;1.80;0.60;;;;;;;;;;5054215;28;20381;-76
2021/12/02 00:06:48;;;;;;;2.45;0.68;;;;;;;;;;5052668;28;20412;-76
2021/12/02 00:09:14;;;;;;;0.57;0.50;;;;;;;;;;5053814;28;20049;-76
2021/12/02 00:11:41;;;;;;;1.85;0.63;;;;;;;;;;5053713;28;20057;-75
2021/12/02 00:14:10;;;;;;;2.08;0.57;;;;;;;;;;5053799;28;20559;-75
2021/12/02 00:22:09;;;;;;;2.75;0.77;;;;;;;;;;5053635;28;20436;-76
2021/12/02 00:24:36;;;;;;;2.97;1.17;;;;;;;;;;5053753;28;20124;-76
2021/12/02 00:27:08;;;;;;;1.40;1.10;;;;;;;;;;5052344;28;20044;-76
2021/12/02 00:29:35;;;;;;;1.20;0.77;;;;;;;;;;5053470;28;20088;-76
2021/12/02 00:32:03;;;;;;;2.75;1.20;;;;;;;;;;5053687;28;20382;-76
2021/12/02 00:34:30;;;;;;;3.95;1.38;;;;;;;;;;5053466;28;20390;-76
2021/12/02 00:36:57;;;;;;;5.13;2.00;;;;;;;;;;5053460;28;20095;-76
2021/12/02 00:39:23;;;;;;;5.25;2.38;;;;;;;;;;5053447;28;20477;-76
2021/12/02 00:41:50;;;;;;;4.88;1.90;;;;;;;;;;5053294;28;20103;-76
2021/12/02 00:44:18;;;;;;;11.27;7.07;;;;;;;;;;5053141;28;20099;-76
2021/12/02 00:46:45;;;;;;;13.75;8.80;;;;;;;;;;5053088;28;20091;-76
2021/12/02 00:49:15;;;;;;;4.82;3.05;;;;;;;;;;5053192;28;20057;-76
2021/12/02 00:51:44;;;;;;;4.57;2.60;;;;;;;;;;5052048;28;20103;-76
2021/12/02 00:54:11;;;;;;;4.93;3.60;;;;;;;;;;5053258;28;20111;-76
2021/12/02 00:56:38;;;;;;;7.07;4.47;;;;;;;;;;5053107;28;20080;-76
2021/12/02 00:59:05;;;;;;;3.92;2.95;;;;;;;;;;5053106;28;20044;-77
2021/12/02 01:01:36;;;;;;;5.15;2.30;;;;;;;;;;5053059;28;20416;-76
2021/12/02 01:04:05;;;;;;;4.38;2.22;;;;;;;;;;5053558;28;20080;-76
2021/12/02 01:06:31;;;;;;;5.03;2.17;;;;;;;;;;5052856;28;20488;-77
2021/12/02 01:08:58;;;;;;;2.45;1.45;;;;;;;;;;5053062;28;20049;-77
2021/12/02 01:11:24;;;;;;;3.05;1.67;;;;;;;;;;5052108;28;20424;-77
2021/12/02 01:13:51;;;;;;;2.92;1.35;;;;;;;;;;5052684;28;20548;-77
2021/12/02 01:16:18;;;;;;;2.03;1.13;;;;;;;;;;5052530;28;20570;-77
2021/12/02 01:18:45;;;;;;;4.53;1.48;;;;;;;;;;5024872;28;20041;-77
2021/12/02 01:21:16;;;;;;;2.53;1.17;;;;;;;;;;5052582;28;20084;-76
2021/12/02 01:23:43;;;;;;;2.58;1.10;;;;;;;;;;5052387;28;20099;-77
2021/12/02 01:26:10;;;;;;;2.40;1.00;;;;;;;;;;5052755;28;20091;-77
2021/12/02 01:28:37;;;;;;;3.85;1.10;;;;;;;;;;5052609;28;20186;-77
2021/12/02 01:31:04;;;;;;;1.38;1.00;;;;;;;;;;5052613;28;20076;-77
2021/12/02 01:33:32;;;;;;;5.03;1.65;;;;;;;;;;5052328;28;20053;-77
2021/12/02 01:36:00;;;;;;;2.00;1.25;;;;;;;;;;5052436;28;20075;-76
2021/12/02 01:38:26;;;;;;;;;;;;;;;;;;5052834;28;20094;-76
2021/12/02 01:40:54;;;;;;;1.67;0.70;;;;;;;;;;5052433;28;19925;-76
2021/12/02 01:43:21;;;;;;;1.35;0.90;;;;;;;;;;5052092;28;20103;-77
2021/12/02 01:45:48;;;;;;;1.50;0.80;;;;;;;;;;5050668;28;20405;-77
2021/12/02 01:48:24;;;;;;;2.35;0.73;;;;;;;;;;5051987;28;20053;-77
2021/12/02 01:51:04;;;;;;;1.33;0.63;;;;;;;;;;5052281;28;20069;-77
2021/12/02 01:53:37;;;;;;;2.60;1.25;;;;;;;;;;5052073;28;20077;-77
2021/12/02 01:56:09;;;;;;;1.63;0.80;;;;;;;;;;5051777;28;20500;-77
2021/12/02 01:58:43;;;;;;;2.40;0.63;;;;;;;;;;5052224;28;20206;-77
2021/12/02 02:01:15;;;;;;;0.65;0.57;;;;;;;;;;5051990;28;20072;-77
2021/12/02 02:03:42;;;;;;;3.58;0.80;;;;;;;;;;5052014;28;20451;-77
2021/12/02 02:06:09;;;;;;;4.72;1.17;;;;;;;;;;5051750;28;20084;-77
2021/12/02 02:08:41;;;;;;;1.95;0.80;;;;;;;;;;5052062;28;20102;-77
2021/12/02 02:11:08;;;;;;;3.10;0.88;;;;;;;;;;5051699;28;20057;-77
2021/12/02 02:13:37;;;;;;;2.03;0.80;;;;;;;;;;5051874;28;20126;-76
2021/12/02 02:16:03;;;;;;;1.95;0.77;;;;;;;;;;5051796;28;20045;-76
2021/12/02 02:18:30;;;;;;;4.25;0.80;;;;;;;;;;5051541;28;20049;-76
2021/12/02 02:23:26;;;;;;;2.08;0.73;;;;;;;;;;5050789;28;20080;-77
2021/12/02 02:25:52;;;;;;;;;;;;;;;;;;5052256;28;20049;-77
2021/12/02 02:28:19;;;;;;;1.30;0.70;;;;;;;;;;5051679;28;19920;-77
2021/12/02 02:30:45;;;;;;;2.55;1.25;;;;;;;;;;5051764;28;20103;-77
2021/12/02 02:33:12;;;;;;;2.45;0.90;;;;;;;;;;5051708;28;20052;-77
2021/12/02 02:35:40;;;;;;;1.55;0.70;;;;;;;;;;5051564;28;20052;-76
2021/12/02 02:38:07;;;;;;;2.58;1.00;;;;;;;;;;5051350;28;20580;-76
2021/12/02 02:40:35;;;;;;;0.93;0.50;;;;;;;;;;5051699;28;20037;-76
2021/12/02 02:43:08;;;;;;;1.75;0.70;;;;;;;;;;5051620;28;20460;-76
2021/12/02 02:45:35;;;;;;;1.88;0.80;;;;;;;;;;5049973;28;20084;-76
2021/12/02 02:48:02;;;;;;;4.80;1.10;;;;;;;;;;5051475;28;20461;-76
2021/12/02 02:50:29;;;;;;;2.22;1.00;;;;;;;;;;5051199;28;20092;-76
2021/12/02 02:53:04;;;;;;;3.70;0.77;;;;;;;;;;5051285;28;20041;-76
2021/12/02 02:55:31;;;;;;;2.53;0.98;;;;;;;;;;5051212;28;20061;-76
2021/12/02 02:58:12;;;;;;;0.77;0.70;;;;;;;;;;5051198;28;20080;-77
2021/12/02 03:00:48;;;;;;;1.08;0.95;;;;;;;;;;5051346;28;20060;-76
2021/12/02 03:08:41;;;;;;;3.45;0.82;;;;;;;;;;5051439;28;20061;-76
2021/12/02 03:11:10;;;;;;;0.88;0.60;;;;;;;;;;5050881;28;20052;-77
2021/12/02 03:13:48;;;;;;;1.88;0.60;;;;;;;;;;5051092;28;20140;-77
2021/12/02 03:19:00;;;;;;;3.75;0.90;;;;;;;;;;5051303;28;20041;-76
2021/12/02 03:21:27;;;;;;;2.67;0.50;;;;;;;;;;5051280;28;20045;-76
2021/12/02 03:23:54;;;;;;;1.23;0.65;;;;;;;;;;5050094;28;20095;-76
2021/12/02 03:26:21;;;;;;;1.50;0.68;;;;;;;;;;5050949;28;20435;-77
2021/12/02 03:28:51;;;;;;;3.05;0.73;;;;;;;;;;5050814;28;20103;-77
2021/12/02 03:31:18;;;;;;;1.23;0.70;;;;;;;;;;5051230;28;20053;-77
2021/12/02 03:33:45;;;;;;;2.73;0.80;;;;;;;;;;5052258;28;20557;-77
2021/12/02 03:36:12;;;;;;;1.67;0.88;;;;;;;;;;5054373;28;20366;-76
2021/12/02 03:38:39;;;;;;;2.00;0.80;;;;;;;;;;5054512;28;20045;-76
2021/12/02 03:41:05;;;;;;;1.88;0.70;;;;;;;;;;5054696;28;20080;-76
2021/12/02 03:43:35;;;;;;;5.03;0.82;;;;;;;;;;5054549;28;20098;-76
2021/12/02 03:46:02;;;;;;;3.03;0.60;;;;;;;;;;5054284;28;20554;-76
2021/12/02 03:48:29;;;;;;;5.53;1.05;;;;;;;;;;5054494;28;20480;-76
2021/12/02 03:50:55;;;;;;;1.63;0.77;;;;;;;;;;5054283;28;20076;-76
2021/12/02 03:53:22;;;;;;;1.55;0.77;;;;;;;;;;5054517;28;20128;-76
2021/12/02 03:55:48;;;;;;;3.08;0.98;;;;;;;;;;5054129;28;20037;-76
2021/12/02 03:58:15;;;;;;;0.85;0.85;;;;;;;;;;5054408;28;20049;-76
2021/12/02 04:00:41;;;;;;;1.42;1.23;;;;;;;;;;5054305;28;20095;-76
2021/12/02 04:03:07;;;;;;;2.13;0.77;;;;;;;;;;5054362;28;20045;-76
2021/12/02 04:05:34;;;;;;;1.17;0.70;;;;;;;;;;5054308;28;20049;-76
2021/12/02 04:08:01;;;;;;;2.45;1.23;;;;;;;;;;5054174;28;20045;-76
2021/12/02 04:10:27;;;;;;;3.33;0.80;;;;;;;;;;5053957;28;20049;-76
2021/12/02 04:15:27;;;;;;;1.00;0.80;;;;;;;;;;5053983;28;20118;-76
2021/12/02 04:17:53;;;;;;;2.25;0.75;;;;;;;;;;5052726;28;20408;-76
2021/12/02 04:20:22;;;;;;;1.48;0.73;;;;;;;;;;5053717;28;20049;-76
2021/12/02 04:22:53;;;;;;;1.55;0.90;;;;;;;;;;5053657;28;20128;-76
2021/12/02 04:25:20;;;;;;;2.88;1.20;;;;;;;;;;5053583;28;20481;-76
2021/12/02 04:27:47;;;;;;;3.47;1.00;;;;;;;;;;5053786;28;20131;-76
2021/12/02 04:30:16;;;;;;;3.53;1.05;;;;;;;;;;5053798;28;20067;-76
2021/12/02 04:32:42;;;;;;;1.85;0.80;;;;;;;;;;5053765;28;20084;-76
2021/12/02 04:35:09;;;;;;;3.17;1.08;;;;;;;;;;5053379;28;20052;-76
2021/12/02 04:37:36;;;;;;;1.52;0.60;;;;;;;;;;5053540;28;20049;-76
2021/12/02 04:40:02;;;;;;;1.55;0.77;;;;;;;;;;5049679;28;20049;-76
2021/12/02 04:42:29;;;;;;;3.78;1.38;;;;;;;;;;5050653;28;20094;-77
2021/12/02 04:44:56;;;;;;;2.70;1.27;;;;;;;;;;5052643;28;20053;-75
2021/12/02 04:47:22;;;;;;;4.30;1.25;;;;;;;;;;5053307;28;20052;-76
2021/12/02 04:49:49;;;;;;;1.60;0.80;;;;;;;;;;5053034;28;20088;-76
2021/12/02 04:52:15;;;;;;;1.70;0.68;;;;;;;;;;5053306;28;20057;-76
2021/12/02 04:54:42;;;;;;;1.10;0.80;;;;;;;;;;5053336;28;20049;-76
2021/12/02 04:57:08;;;;;;;1.48;0.90;;;;;;;;;;5053245;28;20045;-76
2021/12/02 04:59:34;;;;;;;1.25;0.75;;;;;;;;;;5052994;28;20045;-76
2021/12/02 05:02:01;;;;;;;2.10;1.30;;;;;;;;;;5052986;28;20048;-76
2021/12/02 05:04:28;;;;;;;2.03;1.17;;;;;;;;;;5053142;28;20048;-76
2021/12/02 05:06:54;;;;;;;3.88;1.33;;;;;;;;;;5053077;28;20118;-76
2021/12/02 05:09:21;;;;;;;3.33;1.13;;;;;;;;;;5052724;28;20049;-76
2021/12/02 05:11:47;;;;;;;1.50;1.10;;;;;;;;;;5052777;28;20473;-76
2021/12/02 05:14:14;;;;;;;2.10;0.98;;;;;;;;;;5052568;28;20496;-76
2021/12/02 05:16:40;;;;;;;3.60;0.90;;;;;;;;;;5052517;28;20045;-76
2021/12/02 05:19:07;;;;;;;6.70;1.40;;;;;;;;;;5052581;28;20485;-76
2021/12/02 05:21:33;;;;;;;2.72;1.15;;;;;;;;;;5052479;28;20588;-76
2021/12/02 05:23:59;;;;;;;2.83;1.05;;;;;;;;;;5052752;28;20459;-76
2021/12/02 05:26:26;;;;;;;3.00;0.73;;;;;;;;;;5052540;28;20045;-76
2021/12/02 05:28:53;;;;;;;3.08;1.23;;;;;;;;;;5052486;28;20052;-76
2021/12/02 05:31:20;;;;;;;2.80;1.00;;;;;;;;;;5052327;28;20079;-76
2021/12/02 05:33:47;;;;;;;4.70;1.10;;;;;;;;;;5051580;28;20041;-76
2021/12/02 05:36:14;;;;;;;2.55;1.10;;;;;;;;;;5052238;28;20562;-76
2021/12/02 05:38:40;;;;;;;1.33;0.82;;;;;;;;;;5052373;28;20076;-76
2021/12/02 05:41:07;;;;;;;3.28;1.30;;;;;;;;;;5052212;28;20048;-76
2021/12/02 05:43:34;;;;;;;1.17;0.90;;;;;;;;;;5052112;28;20084;-76
2021/12/02 05:46:00;;;;;;;1.33;1.23;;;;;;;;;;5052338;28;20447;-77
2021/12/02 05:48:27;;;;;;;1.52;1.10;;;;;;;;;;5051844;28;20132;-77
2021/12/02 05:50:53;;;;;;;1.63;0.93;;;;;;;;;;5051008;28;20106;-77
2021/12/02 05:53:20;;;;;;;4.13;1.42;;;;;;;;;;5052190;28;20455;-77
2021/12/02 05:55:47;;;;;;;2.67;1.10;;;;;;;;;;5052197;28;20602;-76
2021/12/02 05:58:14;;;;;;;1.52;0.80;;;;;;;;;;5051898;28;20095;-76
2021/12/02 06:00:41;;;;;;;3.53;0.95;;;;;;;;;;5051785;28;20052;-76
2021/12/02 06:03:07;;;;;;;2.47;0.73;;;;;;;;;;5052101;28;20460;-75
2021/12/02 06:05:34;;;;;;;1.75;0.80;;;;;;;;;;5051972;28;20055;-76
2021/12/02 06:08:02;;;;;;;2.67;1.17;;;;;;;;;;5052086;28;20408;-75
2021/12/02 06:10:29;;;;;;;1.73;0.98;;;;;;;;;;5050317;28;20497;-75
2021/12/02 06:12:56;;;;;;;2.30;1.27;;;;;;;;;;5050703;28;20049;-75
2021/12/02 06:15:22;;;;;;;1.58;1.10;;;;;;;;;;5051586;28;20290;-76
2021/12/02 06:17:49;;;;;;;3.38;1.10;;;;;;;;;;5051513;28;20077;-76
2021/12/02 06:20:17;;;;;;;3.50;0.80;;;;;;;;;;5051595;28;20080;-77
2021/12/02 06:22:44;;;;;;;1.05;0.95;;;;;;;;;;5050538;28;20049;-77
2021/12/02 06:27:40;;;;;;;2.90;0.75;;;;;;;;;;5051455;28;20060;-76
2021/12/02 06:30:07;;;;;;;2.38;0.73;;;;;;;;;;5051434;28;20053;-76
2021/12/02 06:32:33;;;;;;;5.05;1.20;;;;;;;;;;5051537;28;20057;-76
2021/12/02 06:35:00;;;;;;;2.63;0.93;;;;;;;;;;5051545;28;20045;-77
2021/12/02 06:37:26;;;;;;;3.72;0.95;;;;;;;;;;5051570;28;20095;-77
2021/12/02 06:39:53;;;;;;;1.73;0.85;;;;;;;;;;5051322;28;20049;-77
2021/12/02 06:42:19;;;;;;;1.13;0.80;;;;;;;;;;5051741;28;20077;-77
2021/12/02 06:44:46;;;;;;;4.40;0.93;;;;;;;;;;5051218;28;20084;-76
2021/12/02 06:47:13;;;;;;;1.92;0.52;;;;;;;;;;5051382;28;20053;-77
2021/12/02 06:49:40;;;;;;;4.97;0.68;;;;;;;;;;5051479;28;20103;-77
2021/12/02 06:52:12;;;;;;;2.90;0.60;;;;;;;;;;5038769;28;20049;-77
2021/12/02 06:54:38;;;;;;;1.52;0.70;;;;;;;;;;5030055;28;20054;-77
2021/12/02 06:57:07;;;;;;;2.22;0.80;;;;;;;;;;5030610;28;20084;-76
2021/12/02 06:59:38;;;;;;;2.85;0.60;;;;;;;;;;5030968;28;20121;-76
2021/12/02 07:02:04;;;;;;;1.70;0.73;;;;;;;;;;5030822;28;20072;-76
2021/12/02 07:04:31;;;;;;;1.75;0.60;;;;;;;;;;5036854;28;20056;-75
2021/12/02 07:06:57;;;;;;;0.82;0.45;;;;;;;;;;5051433;28;20049;-77
2021/12/02 07:09:24;;;;;;;2.40;0.50;;;;;;;;;;5043181;28;20077;-78
2021/12/02 07:11:50;;;;;;;2.95;0.60;;;;;;;;;;5034398;28;20053;-77
2021/12/02 07:14:18;;;;;;;1.80;0.30;;;;;;;;;;5034587;28;20045;-76
2021/12/02 07:16:44;;;;;;;3.15;1.05;;;;;;;;;;5034787;28;20084;-76
2021/12/02 07:19:13;;;;;;;1.83;0.50;;;;;;;;;;5042973;28;20134;-76
2021/12/02 07:21:40;;;;;;;3.47;0.70;;;;;;;;;;5054911;28;20080;-76
2021/12/02 07:24:08;;;;;;;0.88;0.30;;;;;;;;;;5053485;28;20148;-76
2021/12/02 07:26:35;;;;;;;3.63;0.70;;;;;;;;;;5055369;28;20049;-77
2021/12/02 07:29:02;;;;;;;2.28;0.45;;;;;;;;;;5054846;28;20122;-75
2021/12/02 07:31:31;;;;;;;3.70;0.50;;;;;;;;;;5041206;28;20053;-77
2021/12/02 07:33:58;;;;;;;1.20;0.40;;;;;;;;;;5051568;28;20091;-75
2021/12/02 07:36:24;;;;;;;2.33;0.63;;;;;;;;;;5053557;28;20088;-77
2021/12/02 07:38:51;;;;;;;3.42;0.47;;;;;;;;;;5053082;28;20053;-77
2021/12/02 07:41:17;;;;;;;2.05;0.50;;;;;;;;;;5052192;28;20053;-77
2021/12/02 07:43:44;;;;;;;1.17;0.40;;;;;;;;;;5033902;28;20073;-76
2021/12/02 07:46:10;;;;;;;2.28;0.60;;;;;;;;;;5042970;28;20037;-78
2021/12/02 07:48:37;;;;;;;5.55;1.08;;;;;;;;;;5048493;28;20060;-77
2021/12/02 07:51:07;;;;;;;3.42;1.10;;;;;;;;;;5054233;28;20048;-77
2021/12/02 07:53:34;;;;;;;2.50;1.13;;;;;;;;;;5052961;28;20053;-77
2021/12/02 07:56:03;;;;;;;3.35;1.10;;;;;;;;;;5053037;28;20088;-77
2021/12/02 07:58:30;;;;;;;4.43;1.10;;;;;;;;;;5053783;28;20048;-76
2021/12/02 08:01:00;;;;;;;4.05;1.20;;;;;;;;;;5053344;28;20067;-77
2021/12/02 08:03:29;;;;;;;5.90;1.58;;;;;;;;;;5053568;28;20049;-77
2021/12/02 08:05:56;;;;;;;4.32;2.50;;;;;;;;;;5053448;28;20075;-76
2021/12/02 08:08:22;;;;;;;1.85;1.45;;;;;;;;;;5053695;28;20056;-76
2021/12/02 08:10:51;;;;;;;2.55;1.13;;;;;;;;;;5053915;28;20056;-77
2021/12/02 08:13:18;;;;;;;3.10;0.90;;;;;;;;;;5054329;28;20092;-77
2021/12/02 08:15:45;;;;;;;;;;;;;;;;;;5054536;28;20473;-77
2021/12/02 08:18:11;;;;;;;4.50;1.10;;;;;;;;;;5053685;28;20313;-76
2021/12/02 08:20:38;;;;;;;0.93;0.73;;;;;;;;;;5052612;28;20123;-76
2021/12/02 08:23:04;;;;;;;2.53;0.80;;;;;;;;;;5053936;28;20079;-76
2021/12/02 08:25:32;;;;;;;2.50;1.03;;;;;;;;;;5053983;28;20049;-76
2021/12/02 08:28:01;;;;;;;1.67;0.85;;;;;;;;;;5053668;28;20076;-76
2021/12/02 08:30:33;;;;;;;2.55;0.93;;;;;;;;;;5053601;28;20118;-76
2021/12/02 08:33:01;;;;;;;2.72;0.82;;;;;;;;;;5053414;28;20484;-77
2021/12/02 08:35:28;;;;;;;3.35;1.05;;;;;;;;;;5053784;28;20159;-76
2021/12/02 08:37:58;;;;;;;4.05;0.82;;;;;;;;;;5052170;28;20056;-77
2021/12/02 08:40:31;;;;;;;2.20;0.95;;;;;;;;;;5052474;28;20159;-76
2021/12/02 08:43:00;;;;;;;1.77;1.30;;;;;;;;;;5053364;28;20083;-76
2021/12/02 08:45:27;;;;;;;5.15;2.13;;;;;;;;;;5052231;28;20049;-76
2021/12/02 08:47:54;;;;;;;28.85;14.13;;;;;;;;;;5051836;28;20088;-76
2021/12/02 08:50:21;;;;;;;19.10;10.75;;;;;;;;;;5053352;28;20049;-77
2021/12/02 08:52:48;;;;;;;13.60;7.05;;;;;;;;;;5053158;28;20052;-76
2021/12/02 08:55:16;;;;;;;2.83;2.55;;;;;;;;;;5053263;28;20484;-77
2021/12/02 08:57:45;;;;;;;5.05;1.55;;;;;;;;;;5053469;28;20045;-77
2021/12/02 09:00:13;;;;;;;3.83;0.98;;;;;;;;;;5052902;28;20081;-77
2021/12/02 09:02:39;;;;;;;1.90;0.75;;;;;;;;;;5053154;28;20044;-77
2021/12/02 09:05:06;;;;;;;1.10;0.40;;;;;;;;;;5053169;28;20073;-77
2021/12/02 09:07:33;;;;;;;1.60;0.60;;;;;;;;;;5052805;28;20090;-77
2021/12/02 09:09:59;;;;;;;4.60;0.80;;;;;;;;;;5052706;28;20558;-76
2021/12/02 09:12:26;;;;;;;1.05;0.43;;;;;;;;;;5052496;28;20103;-77
2021/12/02 09:14:52;;;;;;;1.20;0.40;;;;;;;;;;5052999;28;20036;-76
2021/12/02 09:17:19;;;;;;;1.40;0.57;;;;;;;;;;5052577;28;20524;-76
2021/12/02 09:19:45;;;;;;;1.15;0.30;;;;;;;;;;5052682;28;20076;-76
2021/12/02 09:22:12;;;;;;;2.00;0.60;;;;;;;;;;5052566;28;20041;-76
2021/12/02 09:24:39;;;;;;;1.92;0.50;;;;;;;;;;5052362;28;20041;-76
2021/12/02 09:27:06;;;;;;;1.48;0.40;;;;;;;;;;5051166;28;20619;-76
2021/12/02 09:29:32;;;;;;;2.00;0.45;;;;;;;;;;5052378;28;20095;-76
2021/12/02 09:31:59;;;;;;;0.65;0.32;;;;;;;;;;5052410;28;20080;-76
2021/12/02 09:34:28;;;;;;;1.38;0.30;;;;;;;;;;5052489;28;20061;-76
2021/12/02 09:36:56;;;;;;;1.33;0.40;;;;;;;;;;5051334;28;20175;-76
2021/12/02 09:39:28;;;;;;;1.63;0.30;;;;;;;;;;5052437;28;20396;-76
2021/12/02 09:41:54;;;;;;;0.57;0.20;;;;;;;;;;5051320;28;20099;-76
2021/12/02 09:44:21;;;;;;;0.38;0.15;;;;;;;;;;5052154;28;20080;-76
2021/12/02 09:46:47;;;;;;;2.42;0.17;;;;;;;;;;5052127;28;20077;-76
2021/12/02 09:49:15;;;;;;;1.27;0.25;;;;;;;;;;5052151;28;20467;-76
2021/12/02 09:54:25;;;;;;;2.15;0.20;;;;;;;;;;5052233;28;20087;-76
2021/12/02 09:56:54;;;;;;;1.75;0.22;;;;;;;;;;5052161;28;20132;-76
2021/12/02 09:59:28;;;;;;;1.45;0.30;;;;;;;;;;5052158;28;20084;-76
2021/12/02 10:02:02;;;;;;;2.42;0.45;;;;;;;;;;5050721;28;20049;-76
2021/12/02 10:04:29;;;;;;;1.92;0.22;;;;;;;;;;5051864;28;20095;-76
2021/12/02 10:07:32;;;;;;;1.00;0.20;;;;;;;;;;5050727;28;20049;-77
2021/12/02 10:10:07;;;;;;;1.83;0.32;;;;;;;;;;5051442;28;20091;-77
2021/12/02 10:12:39;;;;;;;0.82;0.22;;;;;;;;;;5050318;28;20057;-76
2021/12/02 10:15:12;;;;;;;1.35;0.20;;;;;;;;;;5050705;28;20103;-76
2021/12/02 10:17:43;;;;;;;2.92;0.30;;;;;;;;;;5050563;28;20103;-76
2021/12/02 10:23:13;;;;;;;3.30;2.40;;;;;;;;;;5051621;28;20052;-77
2021/12/02 10:25:43;;;;;;;0.90;0.50;;;;;;;;;;5051352;28;20053;-77
2021/12/02 10:28:11;;;;;;;2.17;0.80;;;;;;;;;;5051752;28;20073;-77
2021/12/02 10:30:46;;;;;;;0.73;0.30;;;;;;;;;;5051704;28;20091;-77
2021/12/02 10:33:13;;;;;;;0.80;0.28;;;;;;;;;;5051803;28;20048;-77
2021/12/02 10:35:42;;;;;;;2.33;0.30;;;;;;;;;;5051579;28;20122;-76
2021/12/02 10:38:28;;;;;;;3.08;1.00;;;;;;;;;;5051233;28;20554;-77
2021/12/02 10:40:58;;;;;;;2.13;0.85;;;;;;;;;;5051385;28;20084;-77
2021/12/02 10:43:25;;;;;;;8.10;7.30;;;;;;;;;;5052355;28;20519;-77
2021/12/02 10:45:51;;;;;;;3.67;1.03;;;;;;;;;;5055813;28;20049;-77
2021/12/02 10:48:19;;;;;;;2.65;2.05;;;;;;;;;;5055443;28;20055;-77
2021/12/02 10:50:45;;;;;;;1.42;0.75;;;;;;;;;;5054165;28;20084;-76
2021/12/02 10:53:12;;;;;;;2.95;1.42;;;;;;;;;;5055771;28;20052;-77
2021/12/02 10:55:38;;;;;;;3.55;2.08;;;;;;;;;;5055643;28;20110;-77
2021/12/02 10:58:05;;;;;;;6.80;4.20;;;;;;;;;;5055219;28;20508;-77
2021/12/02 11:00:35;;;;;;;2.78;1.13;;;;;;;;;;5055481;28;20076;-77
2021/12/02 11:03:09;;;;;;;4.60;2.78;;;;;;;;;;5055201;28;20083;-77
2021/12/02 11:05:43;;;;;;;4.93;1.38;;;;;;;;;;5055108;28;20051;-76
2021/12/02 11:08:10;;;;;;;5.43;2.83;;;;;;;;;;5055251;28;20099;-76
2021/12/02 11:10:39;;;;;;;3.50;1.80;;;;;;;;;;5041022;28;20131;-74
2021/12/02 11:13:06;;;;;;;5.97;3.42;;;;;;;;;;5054992;28;20045;-74
2021/12/02 11:15:34;;;;;;;1.67;0.50;;;;;;;;;;5053703;28;20084;-74
2021/12/02 11:18:01;;;;;;;;;;;;;;;;;;5055271;28;20067;-74
2021/12/02 11:20:35;;;;;;;5.90;3.40;;;;;;;;;;5055098;28;19970;-74
2021/12/02 11:23:07;;;;;;;2.20;1.25;;;;;;;;;;5055125;28;20099;-74
2021/12/02 11:25:35;;;;;;;1.48;0.88;;;;;;;;;;5054800;28;20080;-74
2021/12/02 11:28:08;;;;;;;4.20;1.88;;;;;;;;;;5054643;28;20045;-74
2021/12/02 11:30:36;;;;;;;1.98;1.25;;;;;;;;;;5054754;28;20502;-74
2021/12/02 11:33:29;;;;;;;3.35;0.82;;;;;;;;;;5054940;28;20086;-74
2021/12/02 11:35:55;;;;;;;1.33;0.50;;;;;;;;;;5054932;28;20107;-74
2021/12/02 11:38:25;;;;;;;3.50;0.63;;;;;;;;;;5054373;28;20079;-73
2021/12/02 11:40:54;;;;;;;2.83;1.20;;;;;;;;;;5054816;28;20049;-74
2021/12/02 11:43:23;;;;;;;3.72;1.25;;;;;;;;;;5054594;28;20088;-74
2021/12/02 11:45:50;;;;;;;2.10;0.80;;;;;;;;;;5053091;28;20057;-74
2021/12/02 11:48:18;;;;;;;2.97;1.45;;;;;;;;;;5053086;28;20539;-73
2021/12/02 11:50:46;;;;;;;5.22;2.50;;;;;;;;;;5054525;28;20510;-74
2021/12/02 11:53:14;;;;;;;5.88;2.58;;;;;;;;;;5054638;28;20151;-74
2021/12/02 11:55:42;;;;;;;2.38;1.10;;;;;;;;;;5054372;28;20053;-74
2021/12/02 11:58:09;;;;;;;;;;;;;;;;;;5054785;28;20049;-73
2021/12/02 12:00:36;;;;;;;2.28;1.20;;;;;;;;;;5054312;28;19974;-73
2021/12/02 12:03:02;;;;;;;;;;;;;;;;;;5054824;28;20045;-73
2021/12/02 12:05:33;;;;;;;3.80;1.10;;;;;;;;;;5054045;28;19935;-73
2021/12/02 12:08:00;;;;;;;2.03;0.82;;;;;;;;;;5054269;28;20041;-73
2021/12/02 12:10:31;;;;;;;2.80;1.45;;;;;;;;;;5053917;28;20056;-73
2021/12/02 12:13:30;;;;;;;1.27;0.63;;;;;;;;;;5053919;28;20045;-73
2021/12/02 12:16:00;;;;;;;1.08;0.40;;;;;;;;;;5052327;28;20111;-73
2021/12/02 12:18:26;;;;;;;3.85;0.90;;;;;;;;;;5054414;28;20088;-73
2021/12/02 12:20:58;;;;;;;2.40;1.10;;;;;;;;;;5053907;28;20114;-73
2021/12/02 12:23:30;;;;;;;5.82;1.45;;;;;;;;;;5053815;28;20052;-74
2021/12/02 12:26:17;;;;;;;2.63;1.00;;;;;;;;;;5053724;28;20084;-73
2021/12/02 12:29:02;;;;;;;2.97;1.48;;;;;;;;;;5053702;28;20504;-73
2021/12/02 12:31:29;;;;;;;1.45;0.47;;;;;;;;;;5053689;28;20076;-74
2021/12/02 12:33:58;;;;;;;2.30;1.60;;;;;;;;;;5053559;28;20133;-74
2021/12/02 12:36:35;;;;;;;4.50;1.77;;;;;;;;;;5053655;28;20094;-74
2021/12/02 12:39:18;;;;;;;2.78;1.23;;;;;;;;;;5052443;28;20084;-74
2021/12/02 12:42:04;;;;;;;0.80;0.35;;;;;;;;;;5053372;28;20041;-74
2021/12/02 12:44:47;;;;;;;2.15;0.50;;;;;;;;;;5052153;28;20492;-77
2021/12/02 12:47:13;;;;;;;2.10;0.70;;;;;;;;;;5052031;28;20107;-77
2021/12/02 12:49:40;;;;;;;2.63;1.10;;;;;;;;;;5053331;28;20128;-77
2021/12/02 12:52:17;;;;;;;3.33;1.20;;;;;;;;;;5053334;28;20084;-77
2021/12/02 12:55:02;;;;;;;1.25;0.50;;;;;;;;;;5053262;28;20308;-75
2021/12/02 12:57:28;;;;;;;1.63;0.70;;;;;;;;;;5053230;28;20048;-74
2021/12/02 12:59:55;;;;;;;1.37;0.57;;;;;;;;;;5052013;28;20102;-74
2021/12/02 13:02:24;;;;;;;2.10;1.02;;;;;;;;;;5051976;28;20340;-74
2021/12/02 13:04:54;;;;;;;1.90;0.77;;;;;;;;;;5051697;28;20522;-74
2021/12/02 13:07:42;;;;;;;3.83;0.70;;;;;;;;;;5052096;28;20041;-74
2021/12/02 13:10:18;;;;;;;4.03;1.55;;;;;;;;;;5052832;28;20053;-74
2021/12/02 13:12:51;;;;;;;2.30;0.60;;;;;;;;;;5052643;28;20098;-74
2021/12/02 13:15:19;;;;;;;1.08;0.80;;;;;;;;;;5052752;28;20102;-74
2021/12/02 13:17:50;;;;;;;2.70;0.28;;;;;;;;;;5052641;28;20488;-74
2021/12/02 13:20:21;;;;;;;4.13;2.03;;;;;;;;;;5052650;28;20106;-74
2021/12/02 13:23:08;;;;;;;1.52;0.93;;;;;;;;;;5052878;28;20048;-74
2021/12/02 13:25:34;;;;;;;;;;;;;;;;;;5052953;28;20049;-74
2021/12/02 13:28:16;;;;;;;2.15;1.10;;;;;;;;;;5052596;28;20007;-74
2021/12/02 13:30:47;;;;;;;3.03;1.52;;;;;;;;;;5052471;28;20053;-74
2021/12/02 13:33:14;;;;;;;2.50;1.00;;;;;;;;;;5052586;28;20074;-74
2021/12/02 13:35:40;;;;;;;1.35;0.60;;;;;;;;;;5052304;28;20497;-74
2021/12/02 13:38:08;;;;;;;1.88;0.60;;;;;;;;;;5052238;28;20053;-74
2021/12/02 13:40:36;;;;;;;2.15;0.50;;;;;;;;;;5051114;28;20069;-74
2021/12/02 13:43:02;;;;;;;;;;;;;;;;;;5052596;28;20457;-74
2021/12/02 13:45:30;;;;;;;1.25;0.47;;;;;;;;;;5052066;28;19967;-74
2021/12/02 13:48:05;;;;;;;2.67;0.43;;;;;;;;;;5052293;28;20118;-76
2021/12/02 13:50:35;;;;;;;1.65;0.70;;;;;;;;;;5052017;28;20088;-76
2021/12/02 13:53:02;;;;;;;3.45;1.75;;;;;;;;;;5052348;28;20053;-76
2021/12/02 13:55:34;;;;;;;2.58;1.20;;;;;;;;;;5050758;28;20102;-76
2021/12/02 14:00:36;;;;;;;1.70;0.70;;;;;;;;;;5051786;28;20041;-76
2021/12/02 14:03:12;;;;;;;1.77;0.40;;;;;;;;;;5052081;28;20405;-76
2021/12/02 14:05:41;;;;;;;2.55;0.50;;;;;;;;;;5052099;28;20049;-76
2021/12/02 14:08:15;;;;;;;1.98;0.57;;;;;;;;;;5052163;28;20056;-76
2021/12/02 14:10:42;;;;;;;2.60;0.73;;;;;;;;;;5051607;28;20053;-76
2021/12/02 14:13:13;;;;;;;3.38;0.60;;;;;;;;;;5052066;28;20448;-76
2021/12/02 14:15:40;;;;;;;2.40;0.70;;;;;;;;;;5051885;28;20076;-76
2021/12/02 14:18:20;;;;;;;2.63;1.00;;;;;;;;;;5050754;28;20049;-76
2021/12/02 14:21:06;;;;;;;3.78;2.10;;;;;;;;;;5050214;28;20497;-76
2021/12/02 14:23:44;;;;;;;3.10;2.67;;;;;;;;;;5051661;28;20492;-75
2021/12/02 14:26:12;;;;;;;10.73;9.13;;;;;;;;;;5051640;28;20165;-75
2021/12/02 14:28:51;;;;;;;8.40;5.78;;;;;;;;;;5051593;28;20077;-75
2021/12/02 14:31:30;;;;;;;6.95;4.20;;;;;;;;;;5051437;28;20041;-75
2021/12/02 14:33:57;;;;;;;5.97;4.07;;;;;;;;;;5051840;28;20126;-75
2021/12/02 14:36:25;;;;;;;4.30;2.50;;;;;;;;;;5051690;28;20037;-76
2021/12/02 14:39:02;;;;;;;2.35;0.80;;;;;;;;;;5051615;28;20041;-76
2021/12/02 14:41:31;;;;;;;0.98;0.68;;;;;;;;;;5051375;28;20052;-76
2021/12/02 14:43:58;;;;;;;4.35;0.70;;;;;;;;;;5051379;28;20103;-76
2021/12/02 14:46:31;;;;;;;4.25;1.95;;;;;;;;;;5051243;28;20053;-76
2021/12/02 14:49:00;;;;;;;4.30;2.25;;;;;;;;;;5051620;28;20049;-76
2021/12/02 14:51:26;;;;;;;2.72;1.20;;;;;;;;;;5051656;28;20068;-76
2021/12/02 14:53:54;;;;;;;1.93;1.00;;;;;;;;;;5051592;28;20438;-76
2021/12/02 14:56:22;;;;;;;2.88;1.67;;;;;;;;;;5051251;28;20385;-76
2021/12/02 14:59:04;;;;;;;1.52;0.70;;;;;;;;;;5051415;28;20118;-76
2021/12/02 15:01:30;;;;;;;3.20;0.80;;;;;;;;;;5051469;28;20481;-75
2021/12/02 15:03:57;;;;;;;4.65;1.90;;;;;;;;;;5051247;28;20053;-76
2021/12/02 15:06:34;;;;;;;4.07;1.08;;;;;;;;;;5051216;28;20087;-75
2021/12/02 15:09:00;;;;;;;2.75;0.80;;;;;;;;;;5049847;28;20079;-76
2021/12/02 15:11:33;;;;;;;2.08;0.70;;;;;;;;;;5051175;28;20060;-75
2021/12/02 15:13:59;;;;;;;3.72;0.63;;;;;;;;;;5051364;28;20080;-74
2021/12/02 15:16:25;;;;;;;2.83;1.30;;;;;;;;;;5051401;28;20424;-75
2021/12/02 15:18:52;;;;;;;2.72;1.15;;;;;;;;;;5051428;28;20076;-74
2021/12/02 15:21:18;;;;;;;3.70;1.00;;;;;;;;;;5050909;28;20041;-74
2021/12/02 15:23:50;;;;;;;4.55;1.63;;;;;;;;;;5051315;28;20049;-75
2021/12/02 15:26:17;;;;;;;3.38;1.23;;;;;;;;;;5051158;28;20080;-74